createdAt,value
2019-01-09T00:00:20.570Z,18.75
2019-01-09T00:01:20.938Z,18.75
2019-01-09T00:02:20.669Z,18.77
2019-01-09T00:03:21.044Z,18.77
2019-01-09T00:04:20.765Z,18.74
2019-01-09T00:05:28.847Z,18.75
2019-01-09T00:06:20.636Z,18.75
2019-01-09T00:07:20.770Z,18.73
2019-01-09T00:08:21.069Z,18.74
2019-01-09T00:09:20.745Z,18.7
2019-01-09T00:10:21.676Z,18.7
2019-01-09T00:11:21.062Z,18.71
2019-01-09T00:12:21.559Z,18.71
2019-01-09T00:13:20.426Z,18.71
2019-01-09T00:14:21.066Z,18.67
2019-01-09T00:15:20.770Z,18.7
2019-01-09T00:16:20.935Z,18.71
2019-01-09T00:17:21.022Z,18.68
2019-01-09T00:18:21.592Z,18.67
2019-01-09T00:19:21.414Z,18.66
2019-01-09T00:20:20.717Z,18.66
2019-01-09T00:21:21.134Z,18.66
2019-01-09T00:22:20.998Z,18.67
2019-01-09T00:23:21.090Z,18.67
2019-01-09T00:24:20.815Z,18.67
2019-01-09T00:25:20.813Z,18.64
2019-01-09T00:26:20.888Z,18.66
2019-01-09T00:27:20.913Z,18.63
2019-01-09T00:28:20.838Z,18.62
2019-01-09T00:29:20.733Z,18.64
2019-01-09T00:30:20.558Z,18.64
2019-01-09T00:31:20.866Z,18.63
2019-01-09T00:32:20.962Z,18.63
2019-01-09T00:33:20.852Z,18.63
2019-01-09T00:34:21.085Z,18.63
2019-01-09T00:35:21.640Z,18.6
2019-01-09T00:36:21.073Z,18.6
2019-01-09T00:37:20.717Z,18.58
2019-01-09T00:38:20.805Z,18.62
2019-01-09T00:39:20.874Z,18.58
2019-01-09T00:40:20.899Z,18.58
2019-01-09T00:41:21.010Z,18.6
2019-01-09T00:42:20.624Z,18.6
2019-01-09T00:43:20.751Z,18.6
2019-01-09T00:44:20.932Z,18.56
2019-01-09T00:45:21.043Z,18.58
2019-01-09T00:46:20.837Z,18.57
2019-01-09T00:47:20.724Z,18.57
2019-01-09T00:48:20.912Z,18.56
2019-01-09T00:49:20.971Z,18.54
2019-01-09T00:50:20.994Z,18.56
2019-01-09T00:51:21.083Z,18.56
2019-01-09T00:52:20.781Z,18.57
2019-01-09T00:53:20.716Z,18.54
2019-01-09T00:54:20.747Z,18.54
2019-01-09T00:55:20.659Z,18.53
2019-01-09T00:56:20.502Z,18.54
2019-01-09T00:57:20.681Z,18.56
2019-01-09T00:58:20.900Z,18.54
2019-01-09T00:59:20.954Z,18.54
2019-01-09T01:00:20.921Z,18.54
2019-01-09T01:01:20.481Z,18.54
2019-01-09T01:02:20.871Z,18.53
2019-01-09T01:03:20.790Z,18.5
2019-01-09T01:04:20.712Z,18.5
2019-01-09T01:05:20.768Z,18.5
2019-01-09T01:06:20.702Z,18.53
2019-01-09T01:07:20.855Z,18.51
2019-01-09T01:08:20.691Z,18.5
2019-01-09T01:09:20.778Z,18.49
2019-01-09T01:10:20.746Z,18.5
2019-01-09T01:11:20.703Z,18.5
2019-01-09T01:12:20.710Z,18.47
2019-01-09T01:13:20.604Z,18.49
2019-01-09T01:14:20.964Z,18.47
2019-01-09T01:15:20.720Z,18.47
2019-01-09T01:16:20.654Z,18.46
2019-01-09T01:17:20.768Z,18.49
2019-01-09T01:18:20.400Z,18.47
2019-01-09T01:19:21.510Z,18.46
2019-01-09T01:20:20.997Z,18.46
2019-01-09T01:21:20.829Z,18.44
2019-01-09T01:22:21.501Z,18.46
2019-01-09T01:23:20.803Z,18.46
2019-01-09T01:24:20.632Z,18.43
2019-01-09T01:25:20.797Z,18.44
2019-01-09T01:26:21.832Z,18.44
2019-01-09T01:27:21.040Z,18.43
2019-01-09T01:28:20.631Z,18.43
2019-01-09T01:29:21.373Z,18.43
2019-01-09T01:30:21.472Z,18.43
2019-01-09T01:31:20.967Z,18.4
2019-01-09T01:32:21.264Z,18.41
2019-01-09T01:33:21.538Z,18.43
2019-01-09T01:34:20.683Z,18.41
2019-01-09T01:35:20.547Z,18.4
2019-01-09T01:36:21.028Z,18.41
2019-01-09T01:37:20.700Z,18.39
2019-01-09T01:38:20.536Z,18.41
2019-01-09T01:39:21.025Z,18.4
2019-01-09T01:40:20.726Z,18.4
2019-01-09T01:41:20.879Z,18.39
2019-01-09T01:42:21.041Z,18.4
2019-01-09T01:43:20.941Z,18.37
2019-01-09T01:44:20.876Z,18.37
2019-01-09T01:45:20.976Z,18.39
2019-01-09T01:46:20.474Z,18.36
2019-01-09T01:47:21.499Z,18.36
2019-01-09T01:48:20.728Z,18.37
2019-01-09T01:49:20.763Z,18.37
2019-01-09T01:50:20.668Z,18.36
2019-01-09T01:51:20.980Z,18.36
2019-01-09T01:52:20.845Z,18.35
2019-01-09T01:53:20.723Z,18.33
2019-01-09T01:54:21.041Z,18.33
2019-01-09T01:55:20.562Z,18.36
2019-01-09T01:56:20.709Z,18.36
2019-01-09T01:57:20.712Z,18.32
2019-01-09T01:58:20.707Z,18.33
2019-01-09T01:59:20.659Z,18.35
2019-01-09T02:00:20.959Z,18.33
2019-01-09T02:01:20.641Z,18.32
2019-01-09T02:02:21.000Z,18.33
2019-01-09T02:03:20.915Z,18.29
2019-01-09T02:04:20.991Z,18.3
2019-01-09T02:05:21.156Z,18.32
2019-01-09T02:06:21.228Z,18.33
2019-01-09T02:07:21.002Z,18.33
2019-01-09T02:08:20.791Z,18.3
2019-01-09T02:09:20.868Z,18.29
2019-01-09T02:10:20.975Z,18.3
2019-01-09T02:11:21.039Z,18.29
2019-01-09T02:12:20.801Z,18.3
2019-01-09T02:13:20.720Z,18.29
2019-01-09T02:14:20.749Z,18.3
2019-01-09T02:15:20.905Z,18.3
2019-01-09T02:16:20.744Z,18.3
2019-01-09T02:17:20.411Z,18.29
2019-01-09T02:18:21.207Z,18.26
2019-01-09T02:19:20.787Z,18.25
2019-01-09T02:20:20.957Z,18.29
2019-01-09T02:21:21.188Z,18.29
2019-01-09T02:22:21.391Z,18.28
2019-01-09T02:23:20.519Z,18.25
2019-01-09T02:24:20.671Z,18.25
2019-01-09T02:25:20.914Z,18.25
2019-01-09T02:26:20.925Z,18.23
2019-01-09T02:27:20.639Z,18.23
2019-01-09T02:28:20.817Z,18.21
2019-01-09T02:29:20.963Z,18.22
2019-01-09T02:30:20.708Z,18.25
2019-01-09T02:31:20.769Z,18.23
2019-01-09T02:32:20.896Z,18.22
2019-01-09T02:33:20.665Z,18.23
2019-01-09T02:34:20.808Z,18.22
2019-01-09T02:35:20.714Z,18.22
2019-01-09T02:36:20.587Z,18.21
2019-01-09T02:37:20.828Z,18.22
2019-01-09T02:38:20.718Z,18.21
2019-01-09T02:39:20.725Z,18.22
2019-01-09T02:40:20.850Z,18.21
2019-01-09T02:41:20.976Z,18.19
2019-01-09T02:42:20.769Z,18.22
2019-01-09T02:43:20.745Z,18.19
2019-01-09T02:44:20.786Z,18.19
2019-01-09T02:45:20.743Z,18.18
2019-01-09T02:46:20.785Z,18.19
2019-01-09T02:47:20.821Z,18.19
2019-01-09T02:48:20.747Z,18.21
2019-01-09T02:49:20.691Z,18.19
2019-01-09T02:50:20.740Z,18.19
2019-01-09T02:51:20.559Z,18.18
2019-01-09T02:52:20.918Z,18.18
2019-01-09T02:53:20.528Z,18.19
2019-01-09T02:54:21.055Z,18.19
2019-01-09T02:55:21.244Z,18.15
2019-01-09T02:56:21.085Z,18.18
2019-01-09T02:57:21.571Z,18.16
2019-01-09T02:58:20.789Z,18.13
2019-01-09T02:59:21.222Z,18.16
2019-01-09T03:00:21.133Z,18.16
2019-01-09T03:01:20.585Z,18.16
2019-01-09T03:02:20.668Z,18.13
2019-01-09T03:03:20.992Z,18.15
2019-01-09T03:04:20.446Z,18.13
2019-01-09T03:05:20.765Z,18.12
2019-01-09T03:06:23.743Z,18.12
2019-01-09T03:07:20.587Z,18.15
2019-01-09T03:08:20.834Z,18.13
2019-01-09T03:09:20.470Z,18.12
2019-01-09T03:10:20.625Z,18.12
2019-01-09T03:11:21.102Z,18.12
2019-01-09T03:12:21.409Z,18.11
2019-01-09T03:13:20.979Z,18.12
2019-01-09T03:14:21.115Z,18.12
2019-01-09T03:15:21.416Z,18.11
2019-01-09T03:16:21.091Z,18.12
2019-01-09T03:17:20.981Z,18.12
2019-01-09T03:18:21.107Z,18.11
2019-01-09T03:19:21.034Z,18.08
2019-01-09T03:20:21.166Z,18.09
2019-01-09T03:21:22.852Z,18.09
2019-01-09T03:22:21.189Z,18.09
2019-01-09T03:23:20.924Z,18.08
2019-01-09T03:24:20.749Z,18.08
2019-01-09T03:25:21.085Z,18.08
2019-01-09T03:26:20.413Z,18.08
2019-01-09T03:27:20.690Z,18.08
2019-01-09T03:28:21.180Z,18.09
2019-01-09T03:29:20.471Z,18.07
2019-01-09T03:30:20.499Z,18.11
2019-01-09T03:31:21.767Z,18.08
2019-01-09T03:32:21.302Z,18.07
2019-01-09T03:33:20.619Z,18.08
2019-01-09T03:34:20.524Z,18.08
2019-01-09T03:35:20.988Z,18.07
2019-01-09T03:36:21.155Z,18.04
2019-01-09T03:37:20.853Z,18.04
2019-01-09T03:38:20.633Z,18.05
2019-01-09T03:39:20.942Z,18.04
2019-01-09T03:40:21.011Z,18.04
2019-01-09T03:41:20.863Z,18.04
2019-01-09T03:42:20.990Z,18.02
2019-01-09T03:43:20.906Z,18.04
2019-01-09T03:44:20.689Z,18.02
2019-01-09T03:45:20.568Z,18
2019-01-09T03:46:20.625Z,18.01
2019-01-09T03:47:20.763Z,18
2019-01-09T03:48:20.606Z,18
2019-01-09T03:49:20.944Z,18.01
2019-01-09T03:50:21.331Z,18
2019-01-09T03:51:20.759Z,17.98
2019-01-09T03:52:20.896Z,18
2019-01-09T03:53:20.777Z,17.98
2019-01-09T03:54:21.424Z,17.98
2019-01-09T03:55:21.126Z,18
2019-01-09T03:56:20.512Z,17.98
2019-01-09T03:57:20.629Z,17.98
2019-01-09T03:58:20.795Z,17.97
2019-01-09T03:59:20.802Z,17.95
2019-01-09T04:00:20.556Z,17.95
2019-01-09T04:01:21.039Z,17.98
2019-01-09T04:02:20.929Z,17.97
2019-01-09T04:03:20.927Z,17.94
2019-01-09T04:04:20.787Z,17.95
2019-01-09T04:05:20.993Z,17.97
2019-01-09T04:06:21.124Z,17.95
2019-01-09T04:07:21.687Z,17.94
2019-01-09T04:08:21.425Z,17.94
2019-01-09T04:09:20.848Z,17.94
2019-01-09T04:10:20.785Z,17.94
2019-01-09T04:11:20.803Z,17.94
2019-01-09T04:12:20.729Z,17.94
2019-01-09T04:13:20.444Z,17.94
2019-01-09T04:14:20.782Z,17.95
2019-01-09T04:15:20.753Z,17.95
2019-01-09T04:16:20.450Z,17.93
2019-01-09T04:17:20.852Z,17.94
2019-01-09T04:18:20.495Z,17.93
2019-01-09T04:19:20.646Z,17.94
2019-01-09T04:20:20.865Z,17.94
2019-01-09T04:21:20.753Z,17.93
2019-01-09T04:22:20.860Z,17.94
2019-01-09T04:23:20.961Z,17.91
2019-01-09T04:24:20.755Z,17.94
2019-01-09T04:25:20.693Z,17.91
2019-01-09T04:26:20.765Z,17.93
2019-01-09T04:27:20.925Z,17.91
2019-01-09T04:28:20.772Z,17.93
2019-01-09T04:29:20.873Z,17.94
2019-01-09T04:30:20.833Z,17.91
2019-01-09T04:31:20.576Z,17.89
2019-01-09T04:32:20.505Z,17.89
2019-01-09T04:33:20.845Z,17.93
2019-01-09T04:34:20.836Z,17.91
2019-01-09T04:35:21.352Z,17.91
2019-01-09T04:36:20.523Z,17.91
2019-01-09T04:37:20.906Z,17.88
2019-01-09T04:38:20.631Z,17.89
2019-01-09T04:39:21.487Z,17.88
2019-01-09T04:40:21.014Z,17.89
2019-01-09T04:41:21.017Z,17.91
2019-01-09T04:42:20.449Z,17.91
2019-01-09T04:43:20.668Z,17.89
2019-01-09T04:44:20.509Z,17.89
2019-01-09T04:45:20.876Z,17.89
2019-01-09T04:46:21.011Z,17.88
2019-01-09T04:47:20.959Z,17.88
2019-01-09T04:48:21.045Z,17.89
2019-01-09T04:49:20.859Z,17.91
2019-01-09T04:50:20.975Z,17.91
2019-01-09T04:51:20.910Z,17.89
2019-01-09T04:52:20.521Z,17.94
2019-01-09T04:53:20.915Z,17.94
2019-01-09T04:54:20.424Z,17.95
2019-01-09T04:55:20.557Z,17.95
2019-01-09T04:56:21.035Z,18
2019-01-09T04:57:20.533Z,17.98
2019-01-09T04:58:20.598Z,18
2019-01-09T04:59:20.914Z,18.02
2019-01-09T05:00:21.262Z,18.04
2019-01-09T05:01:20.967Z,18.05
2019-01-09T05:02:20.724Z,18.09
2019-01-09T05:03:20.679Z,18.11
2019-01-09T05:04:20.948Z,18.13
2019-01-09T05:05:20.814Z,18.09
2019-01-09T05:06:20.987Z,18.12
2019-01-09T05:07:20.653Z,18.16
2019-01-09T05:08:21.016Z,18.15
2019-01-09T05:09:21.079Z,18.19
2019-01-09T05:10:20.930Z,18.22
2019-01-09T05:11:20.874Z,18.25
2019-01-09T05:12:21.046Z,18.25
2019-01-09T05:13:20.804Z,18.28
2019-01-09T05:14:20.719Z,18.28
2019-01-09T05:15:20.531Z,18.3
2019-01-09T05:16:20.668Z,18.29
2019-01-09T05:17:20.576Z,18.29
2019-01-09T05:18:20.894Z,18.35
2019-01-09T05:19:21.373Z,18.35
2019-01-09T05:20:20.772Z,18.36
2019-01-09T05:21:21.006Z,18.39
2019-01-09T05:22:20.544Z,18.4
2019-01-09T05:23:21.144Z,18.4
2019-01-09T05:24:20.878Z,18.44
2019-01-09T05:25:20.810Z,18.49
2019-01-09T05:26:20.685Z,18.47
2019-01-09T05:27:21.002Z,18.5
2019-01-09T05:28:20.735Z,18.51
2019-01-09T05:29:20.853Z,18.51
2019-01-09T05:30:20.679Z,18.54
2019-01-09T05:31:20.519Z,18.54
2019-01-09T05:32:21.044Z,18.58
2019-01-09T05:33:21.174Z,18.6
2019-01-09T05:34:20.876Z,18.58
2019-01-09T05:35:20.944Z,18.6
2019-01-09T05:36:20.473Z,18.64
2019-01-09T05:37:20.548Z,18.66
2019-01-09T05:38:20.786Z,18.68
2019-01-09T05:39:20.683Z,18.68
2019-01-09T05:40:20.977Z,18.68
2019-01-09T05:41:21.139Z,18.68
2019-01-09T05:42:20.904Z,18.71
2019-01-09T05:43:20.906Z,18.74
2019-01-09T05:44:21.148Z,18.75
2019-01-09T05:45:20.936Z,18.75
2019-01-09T05:46:21.180Z,18.75
2019-01-09T05:47:20.396Z,18.77
2019-01-09T05:48:20.783Z,18.8
2019-01-09T05:49:21.002Z,18.8
2019-01-09T05:50:20.829Z,18.81
2019-01-09T05:51:20.818Z,18.84
2019-01-09T05:52:20.779Z,18.84
2019-01-09T05:53:20.510Z,18.84
2019-01-09T05:54:20.516Z,18.85
2019-01-09T05:55:20.703Z,18.9
2019-01-09T05:56:20.686Z,18.88
2019-01-09T05:57:21.096Z,18.91
2019-01-09T05:58:20.819Z,18.9
2019-01-09T05:59:20.449Z,18.92
2019-01-09T06:00:20.715Z,18.92
2019-01-09T06:01:20.680Z,18.92
2019-01-09T06:02:20.787Z,18.95
2019-01-09T06:03:20.746Z,18.97
2019-01-09T06:04:20.794Z,18.97
2019-01-09T06:05:20.819Z,18.98
2019-01-09T06:06:20.857Z,18.98
2019-01-09T06:07:20.592Z,19.01
2019-01-09T06:08:21.117Z,19.01
2019-01-09T06:09:21.012Z,19.01
2019-01-09T06:10:20.801Z,19.02
2019-01-09T06:11:21.009Z,19.03
2019-01-09T06:12:20.473Z,19.03
2019-01-09T06:13:20.875Z,19.02
2019-01-09T06:14:21.467Z,19.05
2019-01-09T06:15:20.395Z,19.06
2019-01-09T06:16:21.001Z,19.09
2019-01-09T06:17:20.882Z,19.09
2019-01-09T06:18:20.580Z,19.09
2019-01-09T06:19:21.001Z,19.11
2019-01-09T06:20:20.588Z,19.09
2019-01-09T06:21:20.429Z,19.13
2019-01-09T06:22:20.994Z,19.15
2019-01-09T06:23:20.371Z,19.15
2019-01-09T06:24:20.547Z,19.15
2019-01-09T06:25:20.871Z,19.18
2019-01-09T06:26:21.074Z,19.18
2019-01-09T06:27:21.073Z,19.19
2019-01-09T06:28:20.605Z,19.19
2019-01-09T06:29:20.839Z,19.2
2019-01-09T06:30:20.396Z,19.19
2019-01-09T06:31:21.097Z,19.22
2019-01-09T06:32:21.375Z,19.23
2019-01-09T06:33:20.916Z,19.23
2019-01-09T06:34:20.982Z,19.2
2019-01-09T06:35:20.953Z,19.19
2019-01-09T06:36:21.313Z,19.23
2019-01-09T06:37:28.052Z,19.22
2019-01-09T06:38:20.506Z,19.25
2019-01-09T06:39:21.560Z,19.26
2019-01-09T06:40:21.162Z,19.26
2019-01-09T06:41:20.523Z,19.29
2019-01-09T06:42:20.828Z,19.27
2019-01-09T06:43:20.712Z,19.3
2019-01-09T06:44:23.048Z,19.3
2019-01-09T06:45:20.775Z,19.32
2019-01-09T06:46:20.952Z,19.33
2019-01-09T06:47:21.013Z,19.35
2019-01-09T06:48:20.889Z,19.33
2019-01-09T06:49:20.775Z,19.36
2019-01-09T06:50:20.685Z,19.37
2019-01-09T06:51:21.477Z,19.39
2019-01-09T06:52:20.768Z,19.36
2019-01-09T06:53:20.965Z,19.36
2019-01-09T06:54:20.922Z,19.4
2019-01-09T06:55:21.140Z,19.42
2019-01-09T06:56:20.925Z,19.4
2019-01-09T06:57:20.749Z,19.45
2019-01-09T06:58:20.793Z,19.43
2019-01-09T06:59:20.796Z,19.45
2019-01-09T07:00:20.317Z,19.46
2019-01-09T07:01:20.507Z,19.47
2019-01-09T07:02:20.654Z,19.49
2019-01-09T07:03:20.393Z,19.46
2019-01-09T07:04:20.545Z,19.49
2019-01-09T07:05:20.937Z,19.5
2019-01-09T07:06:20.699Z,19.5
2019-01-09T07:07:20.912Z,19.54
2019-01-09T07:08:21.058Z,19.53
2019-01-09T07:09:20.918Z,19.54
2019-01-09T07:10:20.562Z,19.53
2019-01-09T07:11:20.795Z,19.46
2019-01-09T07:12:20.751Z,19.29
2019-01-09T07:13:20.411Z,19.13
2019-01-09T07:14:20.729Z,18.99
2019-01-09T07:15:20.883Z,18.87
2019-01-09T07:16:20.759Z,18.74
2019-01-09T07:17:20.980Z,18.71
2019-01-09T07:18:20.425Z,18.73
2019-01-09T07:19:20.962Z,18.77
2019-01-09T07:20:20.572Z,18.83
2019-01-09T07:21:20.797Z,18.87
2019-01-09T07:22:21.338Z,18.91
2019-01-09T07:23:20.622Z,18.92
2019-01-09T07:24:20.517Z,18.97
2019-01-09T07:25:20.530Z,19.02
2019-01-09T07:26:20.706Z,19.02
2019-01-09T07:27:20.923Z,19.02
2019-01-09T07:28:20.851Z,19.06
2019-01-09T07:29:21.083Z,19.06
2019-01-09T07:30:20.725Z,19.11
2019-01-09T07:31:20.543Z,19.12
2019-01-09T07:32:20.837Z,19.12
2019-01-09T07:33:20.683Z,19.12
2019-01-09T07:34:20.788Z,19.12
2019-01-09T07:35:20.805Z,19.13
2019-01-09T07:36:20.677Z,19.13
2019-01-09T07:37:20.753Z,19.15
2019-01-09T07:38:20.715Z,19.15
2019-01-09T07:39:20.521Z,19.15
2019-01-09T07:40:20.466Z,19.12
2019-01-09T07:41:21.066Z,19.16
2019-01-09T07:42:20.747Z,19.16
2019-01-09T07:43:20.778Z,19.18
2019-01-09T07:44:20.669Z,19.18
2019-01-09T07:45:20.385Z,19.16
2019-01-09T07:46:20.896Z,19.16
2019-01-09T07:47:20.726Z,19.18
2019-01-09T07:48:20.503Z,19.16
2019-01-09T07:49:20.915Z,19.16
2019-01-09T07:50:20.446Z,19.18
2019-01-09T07:51:20.540Z,19.19
2019-01-09T07:52:20.838Z,19.19
2019-01-09T07:53:20.717Z,19.19
2019-01-09T07:54:21.140Z,19.16
2019-01-09T07:55:20.837Z,19.16
2019-01-09T07:56:20.688Z,19.16
2019-01-09T07:57:21.072Z,19.13
2019-01-09T07:58:20.857Z,19.16
2019-01-09T07:59:20.496Z,19.18
2019-01-09T08:00:21.215Z,19.16
2019-01-09T08:01:20.884Z,19.16
2019-01-09T08:02:20.785Z,19.15
2019-01-09T08:03:20.779Z,19.15
2019-01-09T08:04:20.608Z,19.15
2019-01-09T08:05:20.323Z,19.15
2019-01-09T08:06:20.710Z,19.15
2019-01-09T08:07:20.690Z,19.13
2019-01-09T08:08:20.770Z,19.12
2019-01-09T08:09:20.436Z,19.12
2019-01-09T08:10:20.998Z,19.11
2019-01-09T08:11:20.335Z,19.13
2019-01-09T08:12:21.180Z,19.12
2019-01-09T08:13:21.584Z,19.11
2019-01-09T08:14:20.390Z,19.11
2019-01-09T08:15:20.797Z,19.12
2019-01-09T08:16:20.511Z,19.11
2019-01-09T08:17:20.419Z,19.11
2019-01-09T08:18:20.663Z,19.11
2019-01-09T08:19:20.299Z,19.11
2019-01-09T08:20:20.394Z,19.09
2019-01-09T08:21:21.426Z,19.11
2019-01-09T08:22:20.347Z,19.08
2019-01-09T08:23:20.652Z,19.11
2019-01-09T08:24:20.838Z,19.11
2019-01-09T08:25:20.929Z,19.12
2019-01-09T08:26:20.536Z,19.09
2019-01-09T08:27:20.917Z,19.11
2019-01-09T08:28:20.841Z,19.11
2019-01-09T08:29:20.537Z,19.09
2019-01-09T08:30:20.915Z,19.09
2019-01-09T08:31:20.429Z,19.12
2019-01-09T08:32:21.414Z,19.09
2019-01-09T08:33:20.647Z,19.11
2019-01-09T08:34:20.835Z,19.12
2019-01-09T08:35:20.596Z,19.11
2019-01-09T08:36:21.336Z,19.06
2019-01-09T08:37:20.409Z,19.11
2019-01-09T08:38:20.514Z,19.09
2019-01-09T08:39:23.042Z,19.11
2019-01-09T08:40:21.087Z,19.13
2019-01-09T08:41:20.577Z,19.13
2019-01-09T08:42:20.643Z,19.16
2019-01-09T08:43:20.674Z,19.16
2019-01-09T08:44:21.035Z,19.18
2019-01-09T08:45:20.932Z,19.22
2019-01-09T08:46:20.513Z,19.2
2019-01-09T08:47:20.673Z,19.22
2019-01-09T08:48:21.145Z,19.26
2019-01-09T08:49:20.267Z,19.27
2019-01-09T08:50:20.420Z,19.32
2019-01-09T08:51:20.976Z,19.3
2019-01-09T08:52:20.668Z,19.35
2019-01-09T08:53:20.843Z,19.37
2019-01-09T08:54:20.828Z,19.4
2019-01-09T08:55:20.487Z,19.45
2019-01-09T08:56:20.876Z,19.45
2019-01-09T08:57:21.279Z,19.45
2019-01-09T08:58:20.928Z,19.49
2019-01-09T08:59:20.928Z,19.52
2019-01-09T09:00:20.307Z,19.52
2019-01-09T09:01:20.888Z,19.53
2019-01-09T09:02:20.946Z,19.56
2019-01-09T09:03:20.709Z,19.6
2019-01-09T09:04:20.496Z,19.63
2019-01-09T09:05:20.537Z,19.63
2019-01-09T09:06:20.515Z,19.64
2019-01-09T09:07:20.974Z,19.67
2019-01-09T09:08:21.120Z,19.67
2019-01-09T09:09:20.401Z,19.7
2019-01-09T09:10:20.840Z,19.68
2019-01-09T09:11:20.838Z,19.7
2019-01-09T09:12:20.312Z,19.74
2019-01-09T09:13:20.896Z,19.74
2019-01-09T09:14:20.807Z,19.74
2019-01-09T09:15:20.716Z,19.75
2019-01-09T09:16:20.837Z,19.8
2019-01-09T09:17:20.732Z,19.8
2019-01-09T09:18:20.709Z,19.82
2019-01-09T09:19:20.493Z,19.81
2019-01-09T09:20:20.826Z,19.84
2019-01-09T09:21:20.387Z,19.85
2019-01-09T09:22:20.595Z,19.88
2019-01-09T09:23:20.583Z,19.88
2019-01-09T09:24:20.272Z,19.89
2019-01-09T09:25:21.002Z,19.89
2019-01-09T09:26:21.395Z,19.93
2019-01-09T09:27:20.318Z,19.93
2019-01-09T09:28:20.451Z,19.99
2019-01-09T09:29:20.991Z,19.96
2019-01-09T09:30:20.407Z,19.98
2019-01-09T09:31:20.872Z,19.99
2019-01-09T09:32:20.685Z,20.01
2019-01-09T09:33:13.216Z,20.05
2019-01-09T09:34:12.553Z,20.12
2019-01-09T09:35:12.719Z,20.16
2019-01-09T09:36:12.753Z,20.18
2019-01-09T09:37:12.713Z,20.22
2019-01-09T09:38:21.187Z,20.25
2019-01-09T09:39:13.081Z,20.26
2019-01-09T09:40:12.872Z,20.29
2019-01-09T09:41:13.031Z,20.3
2019-01-09T09:42:12.771Z,20.33
2019-01-09T09:43:12.826Z,20.35
2019-01-09T09:44:12.590Z,20.36
2019-01-09T09:45:12.681Z,20.39
2019-01-09T09:46:12.529Z,20.43
2019-01-09T09:47:12.982Z,20.4
2019-01-09T09:48:12.617Z,20.43
2019-01-09T09:49:13.042Z,20.44
2019-01-09T09:50:13.483Z,20.47
2019-01-09T09:51:13.232Z,20.47
2019-01-09T09:52:12.754Z,20.5
2019-01-09T09:53:12.643Z,20.51
2019-01-09T09:54:12.541Z,20.57
2019-01-09T09:55:13.638Z,20.57
2019-01-09T09:56:13.183Z,20.57
2019-01-09T09:57:12.983Z,20.61
2019-01-09T09:58:12.728Z,20.61
2019-01-09T09:59:13.042Z,20.61
2019-01-09T10:00:12.813Z,20.64
2019-01-09T10:01:12.921Z,20.64
2019-01-09T10:02:12.655Z,20.66
2019-01-09T10:03:13.120Z,20.68
2019-01-09T10:04:12.956Z,20.68
2019-01-09T10:05:12.772Z,20.68
2019-01-09T10:06:12.588Z,20.68
2019-01-09T10:07:12.688Z,20.71
2019-01-09T10:08:12.612Z,20.7
2019-01-09T10:09:12.927Z,20.67
2019-01-09T10:10:13.059Z,20.67
2019-01-09T10:11:13.020Z,20.67
2019-01-09T10:12:12.745Z,20.66
2019-01-09T10:13:13.044Z,20.66
2019-01-09T10:14:13.078Z,20.67
2019-01-09T10:15:13.008Z,20.7
2019-01-09T10:16:12.439Z,20.71
2019-01-09T10:17:12.923Z,20.72
2019-01-09T10:18:13.498Z,20.74
2019-01-09T10:19:12.400Z,20.75
2019-01-09T10:20:12.830Z,20.74
2019-01-09T10:21:12.658Z,20.8
2019-01-09T10:22:13.066Z,20.8
2019-01-09T10:23:12.960Z,20.78
2019-01-09T10:24:13.095Z,20.82
2019-01-09T10:25:12.991Z,20.84
2019-01-09T10:26:12.575Z,20.87
2019-01-09T10:27:12.704Z,20.89
2019-01-09T10:28:12.805Z,20.88
2019-01-09T10:29:13.089Z,20.89
2019-01-09T10:30:12.811Z,20.89
2019-01-09T10:31:01.450Z,20.92
2019-01-09T10:32:01.065Z,20.92
2019-01-09T10:33:01.687Z,20.91
2019-01-09T10:34:01.265Z,20.92
2019-01-09T10:35:14.069Z,20.92
2019-01-09T10:36:13.989Z,20.95
2019-01-09T10:37:13.692Z,20.95
2019-01-09T10:38:13.585Z,20.97
2019-01-09T10:39:13.522Z,20.98
2019-01-09T10:41:14.749Z,20.99
2019-01-09T10:42:13.941Z,20.98
2019-01-09T10:43:06.458Z,20.99
2019-01-09T10:44:19.198Z,21.01
2019-01-09T10:45:46.664Z,21.01
2019-01-09T10:46:46.429Z,21.01
2019-01-09T10:47:46.740Z,21.02
2019-01-09T10:48:46.765Z,21.05
2019-01-09T10:49:46.290Z,21.02
2019-01-09T10:50:46.619Z,21.03
2019-01-09T10:51:46.104Z,21.02
2019-01-09T10:52:46.230Z,20.99
2019-01-09T10:54:46.242Z,21.01
2019-01-09T10:55:46.359Z,21.02
2019-01-09T10:56:55.109Z,21.02
2019-01-09T10:57:54.913Z,21.02
2019-01-09T10:59:28.897Z,21.05
2019-01-09T11:00:29.083Z,21.05
2019-01-09T11:01:29.131Z,21.05
2019-01-09T11:02:29.134Z,21.06
2019-01-09T11:03:28.920Z,21.11
2019-01-09T11:04:29.132Z,21.06
2019-01-09T11:05:55.130Z,21.09
2019-01-09T11:06:55.177Z,21.08
2019-01-09T11:07:55.430Z,21.06
2019-01-09T11:08:55.259Z,21.06
2019-01-09T11:09:54.915Z,21.06
2019-01-09T11:11:55.228Z,21.06
2019-01-09T11:12:55.428Z,21.11
2019-01-09T11:13:55.540Z,21.08
2019-01-09T11:14:54.950Z,21.09
2019-01-09T11:15:30.319Z,21.09
2019-01-09T11:16:30.253Z,21.06
2019-01-09T11:17:30.370Z,21.11
2019-01-09T11:18:30.133Z,21.09
2019-01-09T11:19:30.329Z,21.06
2019-01-09T11:21:30.242Z,21.01
2019-01-09T11:22:29.625Z,20.99
2019-01-09T11:23:30.104Z,21.01
2019-01-09T11:24:30.124Z,21.01
2019-01-09T11:25:30.009Z,21.01
2019-01-09T11:26:30.127Z,21.03
2019-01-09T11:27:29.946Z,20.99
2019-01-09T11:28:30.201Z,21.01
2019-01-09T11:29:29.923Z,21.03
2019-01-09T11:30:29.788Z,21.02
2019-01-09T11:31:30.269Z,21.02
2019-01-09T11:32:30.464Z,21.02
2019-01-09T11:33:29.705Z,21.02
2019-01-09T11:34:29.923Z,21.02
2019-01-09T11:35:30.217Z,21.02
2019-01-09T11:36:30.693Z,21.02
2019-01-09T11:37:30.462Z,21.03
2019-01-09T11:38:30.455Z,21.03
2019-01-09T11:39:29.752Z,21.03
2019-01-09T11:40:30.330Z,21.05
2019-01-09T11:41:29.891Z,21.03
2019-01-09T11:42:30.020Z,21.03
2019-01-09T11:43:30.372Z,21.03
2019-01-09T11:44:30.302Z,21.01
2019-01-09T11:45:30.578Z,21.05
2019-01-09T11:46:29.865Z,21.05
2019-01-09T11:47:31.078Z,21.06
2019-01-09T11:48:30.741Z,21.03
2019-01-09T11:49:31.100Z,21.05
2019-01-09T12:48:49.275Z,20.98
2019-01-09T12:49:48.811Z,21.01
2019-01-09T12:50:49.188Z,21.01
2019-01-09T12:51:49.072Z,21.03
2019-01-09T12:52:48.968Z,21.01
2019-01-09T12:53:49.062Z,21.02
2019-01-09T12:54:52.185Z,21.05
2019-01-09T12:55:49.197Z,21.03
2019-01-09T13:01:41.460Z,21.14
2019-01-09T13:02:43.271Z,21.14
2019-01-09T13:03:43.100Z,21.15
2019-01-09T13:04:43.883Z,21.15
2019-01-09T13:05:43.219Z,21.18
2019-01-09T13:06:43.297Z,21.19
2019-01-09T13:07:43.365Z,21.22
2019-01-09T13:08:43.450Z,21.25
2019-01-09T13:09:43.839Z,21.27
2019-01-09T13:10:43.317Z,21.29
2019-01-09T13:11:43.472Z,21.27
2019-01-09T13:12:43.300Z,21.32
2019-01-09T13:13:43.355Z,21.34
2019-01-09T13:14:43.442Z,21.34
2019-01-09T13:15:43.200Z,21.36
2019-01-09T13:16:48.287Z,21.37
2019-01-09T13:17:43.452Z,21.39
2019-01-09T13:18:43.277Z,21.4
2019-01-09T13:19:43.221Z,21.42
2019-01-09T13:20:43.524Z,21.44
2019-01-09T13:21:43.690Z,21.46
2019-01-09T13:22:43.708Z,21.47
2019-01-09T13:23:43.557Z,21.5
2019-01-09T13:24:43.218Z,21.5
2019-01-09T13:25:43.383Z,21.51
2019-01-09T13:26:43.907Z,21.51
2019-01-09T13:27:43.961Z,21.53
2019-01-09T13:28:57.918Z,21.53
2019-01-09T13:29:58.055Z,21.54
2019-01-09T13:30:57.705Z,21.56
2019-01-09T13:31:58.337Z,21.54
2019-01-09T13:32:58.424Z,21.54
2019-01-09T13:33:58.507Z,21.57
2019-01-09T13:35:30.776Z,21.54
2019-01-09T13:36:30.693Z,21.51
2019-01-09T13:37:31.085Z,21.5
2019-01-09T13:38:30.580Z,21.51
2019-01-09T13:39:31.282Z,21.49
2019-01-09T13:40:30.401Z,21.51
2019-01-09T13:41:31.124Z,21.51
2019-01-09T13:42:35.059Z,21.5
2019-01-09T13:43:34.981Z,21.49
2019-01-09T13:44:34.954Z,21.47
2019-01-09T13:45:34.734Z,21.46
2019-01-09T13:46:34.642Z,21.43
2019-01-09T13:47:34.634Z,21.37
2019-01-09T13:48:34.742Z,21.39
2019-01-09T13:49:34.579Z,21.37
2019-01-09T13:50:34.914Z,21.36
2019-01-09T13:51:34.815Z,21.34
2019-01-09T13:52:35.456Z,21.33
2019-01-09T13:53:35.702Z,21.33
2019-01-09T13:54:35.181Z,21.33
2019-01-09T13:55:34.742Z,21.34
2019-01-09T13:56:34.909Z,21.33
2019-01-09T13:57:34.994Z,21.32
2019-01-09T13:58:34.657Z,21.33
2019-01-09T13:59:34.898Z,21.33
2019-01-09T14:00:34.672Z,21.32
2019-01-09T14:01:34.695Z,21.32
2019-01-09T14:02:34.973Z,21.3
2019-01-09T14:03:34.945Z,21.29
2019-01-09T14:04:34.737Z,21.27